sensor_id;sensor_type;location;lat;lon;timestamp;pressure;altitude;pressure_sealevel;temperature;humidity
61035;BME280;46916;40.564;-7.958;2023-04-19T00:01:50;96648.34;;;19.26;39.25
61035;BME280;46916;40.564;-7.958;2023-04-19T00:03:51;96660.63;;;19.27;39.30
61035;BME280;46916;40.564;-7.958;2023-04-19T00:05:52;96650.81;;;19.21;39.33
61035;BME280;46916;40.564;-7.958;2023-04-19T00:07:58;96649.56;;;19.17;39.29
61035;BME280;46916;40.564;-7.958;2023-04-19T00:09:59;96652.63;;;19.14;39.58
61035;BME280;46916;40.564;-7.958;2023-04-19T00:12:00;96652.63;;;19.14;39.58
61035;BME280;46916;40.564;-7.958;2023-04-19T00:14:00;96655.06;;;19.09;39.39
61035;BME280;46916;40.564;-7.958;2023-04-19T00:16:01;96662.44;;;19.07;39.37
61035;BME280;46916;40.564;-7.958;2023-04-19T00:18:02;96663.63;;;18.97;39.48
61035;BME280;46916;40.564;-7.958;2023-04-19T00:20:04;96656.03;;;18.81;39.53
61035;BME280;46916;40.564;-7.958;2023-04-19T00:22:05;96651.47;;;18.68;40.08
61035;BME280;46916;40.564;-7.958;2023-04-19T00:24:06;96646.94;;;18.49;40.28
61035;BME280;46916;40.564;-7.958;2023-04-19T00:26:07;96647.69;;;18.36;40.51
61035;BME280;46916;40.564;-7.958;2023-04-19T00:28:07;96657.25;;;18.30;40.49
61035;BME280;46916;40.564;-7.958;2023-04-19T00:30:09;96656.84;;;18.27;40.82
61035;BME280;46916;40.564;-7.958;2023-04-19T00:32:09;96655.56;;;18.16;40.87
61035;BME280;46916;40.564;-7.958;2023-04-19T00:34:10;96656.34;;;18.10;40.89
61035;BME280;46916;40.564;-7.958;2023-04-19T00:36:11;96656.50;;;18.02;41.42
61035;BME280;46916;40.564;-7.958;2023-04-19T00:38:12;96656.47;;;17.95;41.46
61035;BME280;46916;40.564;-7.958;2023-04-19T00:40:13;96642.97;;;17.90;41.41
61035;BME280;46916;40.564;-7.958;2023-04-19T00:42:14;96649.47;;;17.88;41.65
61035;BME280;46916;40.564;-7.958;2023-04-19T00:44:14;96648.88;;;17.86;41.65
61035;BME280;46916;40.564;-7.958;2023-04-19T00:46:15;96651.72;;;17.84;41.71
61035;BME280;46916;40.564;-7.958;2023-04-19T00:48:16;96648.06;;;17.92;41.47
61035;BME280;46916;40.564;-7.958;2023-04-19T00:50:19;96645.47;;;17.98;41.28
61035;BME280;46916;40.564;-7.958;2023-04-19T00:52:21;96646.78;;;18.09;41.24
61035;BME280;46916;40.564;-7.958;2023-04-19T00:54:22;96642.31;;;18.16;41.22
61035;BME280;46916;40.564;-7.958;2023-04-19T00:56:25;96638.44;;;18.19;41.24
61035;BME280;46916;40.564;-7.958;2023-04-19T00:58:27;96640.50;;;18.23;41.28
61035;BME280;46916;40.564;-7.958;2023-04-19T01:00:30;96640.31;;;18.25;41.45
61035;BME280;46916;40.564;-7.958;2023-04-19T01:02:32;96638.66;;;18.24;41.25
61035;BME280;46916;40.564;-7.958;2023-04-19T01:04:32;96627.47;;;18.28;41.28
61035;BME280;46916;40.564;-7.958;2023-04-19T01:06:34;96639.09;;;18.27;41.29
61035;BME280;46916;40.564;-7.958;2023-04-19T01:08:36;96628.72;;;18.26;41.23
61035;BME280;46916;40.564;-7.958;2023-04-19T01:10:37;96630.88;;;18.16;41.30
61035;BME280;46916;40.564;-7.958;2023-04-19T01:12:37;96637.00;;;18.16;41.22
61035;BME280;46916;40.564;-7.958;2023-04-19T01:14:38;96625.59;;;18.16;41.26
61035;BME280;46916;40.564;-7.958;2023-04-19T01:16:39;96630.88;;;18.16;41.16
61035;BME280;46916;40.564;-7.958;2023-04-19T01:18:40;96621.09;;;18.16;41.03
61035;BME280;46916;40.564;-7.958;2023-04-19T01:20:41;96625.19;;;18.19;41.19
61035;BME280;46916;40.564;-7.958;2023-04-19T01:22:42;96631.31;;;18.19;41.22
61035;BME280;46916;40.564;-7.958;2023-04-19T01:24:43;96616.00;;;18.15;41.27
61035;BME280;46916;40.564;-7.958;2023-04-19T01:26:44;96629.03;;;18.16;41.29
61035;BME280;46916;40.564;-7.958;2023-04-19T01:28:44;96619.47;;;18.15;41.29
61035;BME280;46916;40.564;-7.958;2023-04-19T01:30:45;96616.41;;;18.12;41.39
61035;BME280;46916;40.564;-7.958;2023-04-19T01:32:46;96613.31;;;18.08;41.40
61035;BME280;46916;40.564;-7.958;2023-04-19T01:34:47;96605.19;;;18.10;41.58
61035;BME280;46916;40.564;-7.958;2023-04-19T01:36:48;96615.34;;;18.06;41.66
61035;BME280;46916;40.564;-7.958;2023-04-19T01:38:49;96613.31;;;18.01;41.67
61035;BME280;46916;40.564;-7.958;2023-04-19T01:40:50;96610.81;;;18.00;41.50
61035;BME280;46916;40.564;-7.958;2023-04-19T01:42:51;96610.81;;;18.00;41.59
61035;BME280;46916;40.564;-7.958;2023-04-19T01:44:52;96614.94;;;18.02;41.57
61035;BME280;46916;40.564;-7.958;2023-04-19T01:46:53;96613.31;;;18.01;41.66
61035;BME280;46916;40.564;-7.958;2023-04-19T01:48:54;96606.72;;;17.91;41.94
61035;BME280;46916;40.564;-7.958;2023-04-19T01:50:55;96607.06;;;17.81;42.06
61035;BME280;46916;40.564;-7.958;2023-04-19T01:52:56;96600.16;;;17.80;42.06
61035;BME280;46916;40.564;-7.958;2023-04-19T01:54:57;96595.47;;;17.82;41.92
61035;BME280;46916;40.564;-7.958;2023-04-19T01:56:57;96607.06;;;17.81;42.06
61035;BME280;46916;40.564;-7.958;2023-04-19T01:58:59;96597.25;;;17.75;42.32
61035;BME280;46916;40.564;-7.958;2023-04-19T02:01:00;96596.44;;;17.74;42.10
61035;BME280;46916;40.564;-7.958;2023-04-19T02:03:01;96596.88;;;17.78;42.22
61035;BME280;46916;40.564;-7.958;2023-04-19T02:05:01;96601.34;;;17.77;42.04
61035;BME280;46916;40.564;-7.958;2023-04-19T02:07:02;96595.97;;;17.71;42.28
61035;BME280;46916;40.564;-7.958;2023-04-19T02:09:03;96597.97;;;17.62;42.37
61035;BME280;46916;40.564;-7.958;2023-04-19T02:11:11;96592.78;;;17.47;42.27
61035;BME280;46916;40.564;-7.958;2023-04-19T02:13:15;96598.84;;;17.41;42.91
61035;BME280;46916;40.564;-7.958;2023-04-19T02:15:16;96605.28;;;17.32;43.55
61035;BME280;46916;40.564;-7.958;2023-04-19T02:17:16;96592.72;;;17.13;43.80
61035;BME280;46916;40.564;-7.958;2023-04-19T02:19:17;96600.78;;;17.04;43.95
61035;BME280;46916;40.564;-7.958;2023-04-19T02:21:18;96597.91;;;16.99;44.16
61035;BME280;46916;40.564;-7.958;2023-04-19T02:23:21;96599.09;;;16.97;44.05
61035;BME280;46916;40.564;-7.958;2023-04-19T02:25:21;96596.28;;;16.98;44.09
61035;BME280;46916;40.564;-7.958;2023-04-19T02:27:22;96604.09;;;17.06;43.92
61035;BME280;46916;40.564;-7.958;2023-04-19T02:29:23;96599.03;;;17.12;43.95
61035;BME280;46916;40.564;-7.958;2023-04-19T02:31:23;96596.00;;;17.15;43.96
61035;BME280;46916;40.564;-7.958;2023-04-19T02:33:25;96603.44;;;17.04;44.21
61035;BME280;46916;40.564;-7.958;2023-04-19T02:35:29;96601.41;;;16.85;44.40
61035;BME280;46916;40.564;-7.958;2023-04-19T02:37:31;96595.09;;;16.65;44.75
61035;BME280;46916;40.564;-7.958;2023-04-19T02:39:32;96592.50;;;16.50;45.25
61035;BME280;46916;40.564;-7.958;2023-04-19T02:41:33;96602.00;;;16.44;45.36
61035;BME280;46916;40.564;-7.958;2023-04-19T02:43:35;96601.19;;;16.44;45.33
61035;BME280;46916;40.564;-7.958;2023-04-19T02:45:36;96598.97;;;16.47;45.15
61035;BME280;46916;40.564;-7.958;2023-04-19T02:47:36;96593.94;;;16.52;45.21
61035;BME280;46916;40.564;-7.958;2023-04-19T02:49:37;96600.13;;;16.59;44.94
61035;BME280;46916;40.564;-7.958;2023-04-19T02:51:43;96595.03;;;16.58;45.03
61035;BME280;46916;40.564;-7.958;2023-04-19T02:53:45;96593.34;;;16.50;45.05
61035;BME280;46916;40.564;-7.958;2023-04-19T02:55:46;96594.50;;;16.48;45.29
61035;BME280;46916;40.564;-7.958;2023-04-19T02:57:50;96596.25;;;16.41;45.42
61035;BME280;46916;40.564;-7.958;2023-04-19T02:59:51;96593.00;;;16.39;45.34
61035;BME280;46916;40.564;-7.958;2023-04-19T03:01:52;96603.56;;;16.39;45.48
61035;BME280;46916;40.564;-7.958;2023-04-19T03:03:54;96599.84;;;16.33;45.46
61035;BME280;46916;40.564;-7.958;2023-04-19T03:05:54;96600.03;;;16.31;45.64
61035;BME280;46916;40.564;-7.958;2023-04-19T03:07:56;96592.66;;;16.27;45.57
61035;BME280;46916;40.564;-7.958;2023-04-19T03:09:57;96604.50;;;16.31;45.51
61035;BME280;46916;40.564;-7.958;2023-04-19T03:11:58;96593.03;;;16.24;45.38
61035;BME280;46916;40.564;-7.958;2023-04-19T03:14:00;96602.22;;;16.28;45.70
61035;BME280;46916;40.564;-7.958;2023-04-19T03:16:01;96600.59;;;16.27;45.64
61035;BME280;46916;40.564;-7.958;2023-04-19T03:18:05;96599.69;;;16.20;45.63
61035;BME280;46916;40.564;-7.958;2023-04-19T03:20:07;96605.97;;;16.19;45.73
61035;BME280;46916;40.564;-7.958;2023-04-19T03:22:11;96608.41;;;16.20;45.64
61035;BME280;46916;40.564;-7.958;2023-04-19T03:24:13;96605.72;;;16.14;45.84
61035;BME280;46916;40.564;-7.958;2023-04-19T03:26:19;96602.53;;;16.03;46.12
61035;BME280;46916;40.564;-7.958;2023-04-19T03:28:23;96605.25;;;15.95;46.01
61035;BME280;46916;40.564;-7.958;2023-04-19T03:30:46;96614.41;;;15.93;46.00
61035;BME280;46916;40.564;-7.958;2023-04-19T03:32:47;96608.72;;;15.96;45.84
61035;BME280;46916;40.564;-7.958;2023-04-19T03:34:48;96608.09;;;16.08;45.61
61035;BME280;46916;40.564;-7.958;2023-04-19T03:36:50;96611.06;;;16.20;45.37
61035;BME280;46916;40.564;-7.958;2023-04-19T03:38:52;96606.44;;;16.22;44.99
61035;BME280;46916;40.564;-7.958;2023-04-19T03:40:55;96611.16;;;16.27;44.94
61035;BME280;46916;40.564;-7.958;2023-04-19T03:42:57;96611.50;;;16.24;45.01
61035;BME280;46916;40.564;-7.958;2023-04-19T03:45:03;96611.72;;;16.22;45.12
61035;BME280;46916;40.564;-7.958;2023-04-19T03:47:06;96611.41;;;16.32;45.02
61035;BME280;46916;40.564;-7.958;2023-04-19T03:49:13;96603.69;;;16.30;45.31
61035;BME280;46916;40.564;-7.958;2023-04-19T03:51:17;96612.69;;;16.36;45.30
61035;BME280;46916;40.564;-7.958;2023-04-19T03:53:18;96605.75;;;16.35;45.64
61035;BME280;46916;40.564;-7.958;2023-04-19T03:55:19;96608.66;;;16.40;45.50
61035;BME280;46916;40.564;-7.958;2023-04-19T03:57:20;96604.59;;;16.38;45.53
61035;BME280;46916;40.564;-7.958;2023-04-19T03:59:21;96605.84;;;16.42;45.61
61035;BME280;46916;40.564;-7.958;2023-04-19T04:01:22;96607.38;;;16.36;45.66
61035;BME280;46916;40.564;-7.958;2023-04-19T04:03:24;96609.06;;;16.37;45.88
61035;BME280;46916;40.564;-7.958;2023-04-19T04:05:27;96603.94;;;16.35;45.92
61035;BME280;46916;40.564;-7.958;2023-04-19T04:07:28;96605.56;;;16.37;45.80
61035;BME280;46916;40.564;-7.958;2023-04-19T04:09:30;96606.13;;;16.32;45.94
61035;BME280;46916;40.564;-7.958;2023-04-19T04:11:30;96608.41;;;16.35;45.91
61035;BME280;46916;40.564;-7.958;2023-04-19T04:13:32;96601.66;;;16.32;45.75
61035;BME280;46916;40.564;-7.958;2023-04-19T04:15:41;96611.03;;;16.35;45.44
61035;BME280;46916;40.564;-7.958;2023-04-19T04:17:45;96603.31;;;16.33;45.60
61035;BME280;46916;40.564;-7.958;2023-04-19T04:19:45;96617.34;;;16.34;45.25
61035;BME280;46916;40.564;-7.958;2023-04-19T04:21:47;96610.53;;;16.25;45.62
61035;BME280;46916;40.564;-7.958;2023-04-19T04:23:49;96613.09;;;16.18;45.67
61035;BME280;46916;40.564;-7.958;2023-04-19T04:26:00;96607.19;;;16.01;45.90
61035;BME280;46916;40.564;-7.958;2023-04-19T04:28:09;96618.75;;;16.00;45.88
61035;BME280;46916;40.564;-7.958;2023-04-19T04:30:12;96616.28;;;15.99;45.65
61035;BME280;46916;40.564;-7.958;2023-04-19T04:32:14;96617.50;;;15.96;45.89
61035;BME280;46916;40.564;-7.958;2023-04-19T04:34:17;96616.13;;;15.85;46.01
61035;BME280;46916;40.564;-7.958;2023-04-19T04:36:25;96608.84;;;15.73;46.16
61035;BME280;46916;40.564;-7.958;2023-04-19T04:38:30;96607.63;;;15.60;46.54
61035;BME280;46916;40.564;-7.958;2023-04-19T04:40:31;96616.06;;;15.41;47.06
61035;BME280;46916;40.564;-7.958;2023-04-19T04:42:33;96616.94;;;15.19;47.50
61035;BME280;46916;40.564;-7.958;2023-04-19T04:44:36;96630.25;;;15.02;47.97
61035;BME280;46916;40.564;-7.958;2023-04-19T04:46:40;96621.22;;;14.97;47.93
61035;BME280;46916;40.564;-7.958;2023-04-19T04:48:41;96629.47;;;14.94;48.01
61035;BME280;46916;40.564;-7.958;2023-04-19T04:50:42;96625.03;;;14.94;48.03
61035;BME280;46916;40.564;-7.958;2023-04-19T04:52:44;96625.03;;;14.94;47.83
61035;BME280;46916;40.564;-7.958;2023-04-19T04:54:52;96627.91;;;15.07;47.66
61035;BME280;46916;40.564;-7.958;2023-04-19T04:56:59;96627.38;;;15.12;47.69
61035;BME280;46916;40.564;-7.958;2023-04-19T04:59:00;96624.72;;;15.12;47.43
61035;BME280;46916;40.564;-7.958;2023-04-19T05:01:06;96618.34;;;15.06;47.42
61035;BME280;46916;40.564;-7.958;2023-04-19T05:03:12;96618.09;;;15.16;47.22
61035;BME280;46916;40.564;-7.958;2023-04-19T05:05:23;96620.53;;;15.18;47.04
61035;BME280;46916;40.564;-7.958;2023-04-19T05:07:23;96625.28;;;15.22;46.99
61035;BME280;46916;40.564;-7.958;2023-04-19T05:09:24;96632.31;;;15.30;46.92
61035;BME280;46916;40.564;-7.958;2023-04-19T05:11:25;96623.50;;;15.23;46.90
61035;BME280;46916;40.564;-7.958;2023-04-19T05:13:27;96630.69;;;15.29;46.81
61035;BME280;46916;40.564;-7.958;2023-04-19T05:15:28;96636.63;;;15.31;46.78
61035;BME280;46916;40.564;-7.958;2023-04-19T05:17:29;96627.84;;;15.30;46.83
61035;BME280;46916;40.564;-7.958;2023-04-19T05:19:30;96624.59;;;15.28;46.67
61035;BME280;46916;40.564;-7.958;2023-04-19T05:21:36;96637.59;;;15.30;46.84
61035;BME280;46916;40.564;-7.958;2023-04-19T05:23:38;96629.03;;;15.28;46.67
61035;BME280;46916;40.564;-7.958;2023-04-19T05:25:39;96637.66;;;15.22;47.03
61035;BME280;46916;40.564;-7.958;2023-04-19T05:27:41;96637.72;;;15.14;47.18
61035;BME280;46916;40.564;-7.958;2023-04-19T05:29:42;96637.09;;;15.11;47.32
61035;BME280;46916;40.564;-7.958;2023-04-19T05:31:43;96635.00;;;15.07;47.44
61035;BME280;46916;40.564;-7.958;2023-04-19T05:33:59;96635.69;;;15.01;47.46
61035;BME280;46916;40.564;-7.958;2023-04-19T05:36:00;96639.66;;;14.97;47.50
61035;BME280;46916;40.564;-7.958;2023-04-19T05:38:02;96635.75;;;14.93;47.48
61035;BME280;46916;40.564;-7.958;2023-04-19T05:40:03;96647.31;;;14.92;47.55
61035;BME280;46916;40.564;-7.958;2023-04-19T05:42:05;96648.25;;;14.99;47.43
61035;BME280;46916;40.564;-7.958;2023-04-19T05:44:06;96648.25;;;14.99;47.55
61035;BME280;46916;40.564;-7.958;2023-04-19T05:46:07;96648.84;;;14.86;47.48
61035;BME280;46916;40.564;-7.958;2023-04-19T05:48:08;96644.44;;;14.78;47.70
61035;BME280;46916;40.564;-7.958;2023-04-19T05:50:31;96651.34;;;14.79;47.79
61035;BME280;46916;40.564;-7.958;2023-04-19T05:52:55;96648.50;;;14.81;47.66
61035;BME280;46916;40.564;-7.958;2023-04-19T05:54:56;96648.41;;;14.74;47.64
61035;BME280;46916;40.564;-7.958;2023-04-19T05:56:57;96639.56;;;14.67;47.95
61035;BME280;46916;40.564;-7.958;2023-04-19T05:58:58;96642.47;;;14.49;48.19
61035;BME280;46916;40.564;-7.958;2023-04-19T06:01:01;96647.38;;;14.44;48.43
61035;BME280;46916;40.564;-7.958;2023-04-19T06:03:02;96649.53;;;14.41;48.46
61035;BME280;46916;40.564;-7.958;2023-04-19T06:05:03;96647.78;;;14.33;48.69
61035;BME280;46916;40.564;-7.958;2023-04-19T06:07:04;96654.84;;;14.32;48.63
61035;BME280;46916;40.564;-7.958;2023-04-19T06:09:04;96659.44;;;14.38;48.61
61035;BME280;46916;40.564;-7.958;2023-04-19T06:11:06;96656.97;;;14.45;48.34
61035;BME280;46916;40.564;-7.958;2023-04-19T06:13:07;96668.41;;;14.60;48.13
61035;BME280;46916;40.564;-7.958;2023-04-19T06:15:08;96662.94;;;14.70;48.02
61035;BME280;46916;40.564;-7.958;2023-04-19T06:17:09;96667.16;;;14.79;47.74
61035;BME280;46916;40.564;-7.958;2023-04-19T06:19:10;96656.84;;;14.93;47.53
61035;BME280;46916;40.564;-7.958;2023-04-19T06:21:10;96667.09;;;15.10;47.09
61035;BME280;46916;40.564;-7.958;2023-04-19T06:23:11;96659.50;;;15.30;46.69
61035;BME280;46916;40.564;-7.958;2023-04-19T06:25:13;96664.13;;;15.51;46.47
61035;BME280;46916;40.564;-7.958;2023-04-19T06:27:15;96663.81;;;15.69;46.03
61035;BME280;46916;40.564;-7.958;2023-04-19T06:29:16;96668.09;;;15.85;45.75
61035;BME280;46916;40.564;-7.958;2023-04-19T06:31:19;96667.13;;;16.01;45.38
61035;BME280;46916;40.564;-7.958;2023-04-19T06:33:20;96666.84;;;16.10;45.05
61035;BME280;46916;40.564;-7.958;2023-04-19T06:35:20;96665.19;;;16.09;44.99
61035;BME280;46916;40.564;-7.958;2023-04-19T06:37:21;96673.56;;;15.98;45.25
61035;BME280;46916;40.564;-7.958;2023-04-19T06:39:22;96673.94;;;15.95;45.40
61035;BME280;46916;40.564;-7.958;2023-04-19T06:41:23;96672.66;;;15.91;45.42
61035;BME280;46916;40.564;-7.958;2023-04-19T06:43:23;96680.31;;;15.86;46.02
61035;BME280;46916;40.564;-7.958;2023-04-19T06:45:24;96684.31;;;15.82;45.93
61035;BME280;46916;40.564;-7.958;2023-04-19T06:47:25;96681.66;;;15.82;46.25
61035;BME280;46916;40.564;-7.958;2023-04-19T06:49:26;96682.84;;;15.79;46.08
61035;BME280;46916;40.564;-7.958;2023-04-19T06:51:27;96685.69;;;15.93;45.93
61035;BME280;46916;40.564;-7.958;2023-04-19T06:53:27;96677.50;;;16.02;45.66
61035;BME280;46916;40.564;-7.958;2023-04-19T06:55:28;96693.69;;;16.14;45.45
61035;BME280;46916;40.564;-7.958;2023-04-19T06:57:29;96677.31;;;16.19;44.96
61035;BME280;46916;40.564;-7.958;2023-04-19T06:59:29;96685.22;;;16.04;44.92
61035;BME280;46916;40.564;-7.958;2023-04-19T07:01:31;96687.94;;;15.81;45.44
61035;BME280;46916;40.564;-7.958;2023-04-19T07:03:32;96695.59;;;15.76;45.65
61035;BME280;46916;40.564;-7.958;2023-04-19T07:05:35;96696.78;;;15.73;45.96
61035;BME280;46916;40.564;-7.958;2023-04-19T07:07:35;96692.13;;;15.75;46.11
61035;BME280;46916;40.564;-7.958;2023-04-19T07:09:37;96689.94;;;15.79;45.60
61035;BME280;46916;40.564;-7.958;2023-04-19T07:11:38;96692.50;;;15.87;45.73
61035;BME280;46916;40.564;-7.958;2023-04-19T07:13:38;96695.94;;;15.88;45.51
61035;BME280;46916;40.564;-7.958;2023-04-19T07:15:41;96691.13;;;15.91;45.36
61035;BME280;46916;40.564;-7.958;2023-04-19T07:17:42;96695.97;;;16.02;45.24
61035;BME280;46916;40.564;-7.958;2023-04-19T07:19:46;96692.53;;;16.17;45.27
61035;BME280;46916;40.564;-7.958;2023-04-19T07:21:49;96700.06;;;16.34;44.84
61035;BME280;46916;40.564;-7.958;2023-04-19T07:23:50;96679.03;;;16.41;45.38
61035;BME280;46916;40.564;-7.958;2023-04-19T07:25:50;96699.13;;;16.57;45.11
61035;BME280;46916;40.564;-7.958;2023-04-19T07:27:54;96695.31;;;16.74;46.78
61035;BME280;46916;40.564;-7.958;2023-04-19T07:29:55;96694.28;;;17.12;47.52
61035;BME280;46916;40.564;-7.958;2023-04-19T07:31:56;96697.16;;;17.38;46.16
61035;BME280;46916;40.564;-7.958;2023-04-19T07:33:59;96699.72;;;17.53;45.37
61035;BME280;46916;40.564;-7.958;2023-04-19T07:36:00;96698.00;;;17.67;45.14
61035;BME280;46916;40.564;-7.958;2023-04-19T07:38:01;96697.13;;;17.81;45.74
61035;BME280;46916;40.564;-7.958;2023-04-19T07:40:01;96693.38;;;17.97;46.08
61035;BME280;46916;40.564;-7.958;2023-04-19T07:42:03;96699.34;;;18.12;45.40
61035;BME280;46916;40.564;-7.958;2023-04-19T07:44:04;96690.41;;;18.13;45.54
61035;BME280;46916;40.564;-7.958;2023-04-19T07:46:09;96690.84;;;18.17;45.44
61035;BME280;46916;40.564;-7.958;2023-04-19T07:48:10;96700.25;;;18.26;45.13
61035;BME280;46916;40.564;-7.958;2023-04-19T07:50:11;96694.81;;;18.34;44.71
61035;BME280;46916;40.564;-7.958;2023-04-19T07:52:11;96692.97;;;18.35;44.41
61035;BME280;46916;40.564;-7.958;2023-04-19T07:54:12;96696.44;;;18.35;44.59
61035;BME280;46916;40.564;-7.958;2023-04-19T07:56:15;96697.22;;;18.29;44.36
61035;BME280;46916;40.564;-7.958;2023-04-19T07:58:16;96702.72;;;18.27;44.36
61035;BME280;46916;40.564;-7.958;2023-04-19T08:00:17;96701.09;;;18.26;44.28
61035;BME280;46916;40.564;-7.958;2023-04-19T08:02:20;96710.38;;;18.16;43.88
61035;BME280;46916;40.564;-7.958;2023-04-19T08:04:21;96706.25;;;18.06;44.11
61035;BME280;46916;40.564;-7.958;2023-04-19T08:06:22;96705.16;;;17.94;43.93
61035;BME280;46916;40.564;-7.958;2023-04-19T08:08:23;96714.75;;;17.95;44.28
61035;BME280;46916;40.564;-7.958;2023-04-19T08:10:25;96708.19;;;17.91;44.39
61035;BME280;46916;40.564;-7.958;2023-04-19T08:12:28;96705.69;;;17.83;44.27
61035;BME280;46916;40.564;-7.958;2023-04-19T08:14:28;96710.16;;;17.82;43.23
61035;BME280;46916;40.564;-7.958;2023-04-19T08:16:29;96713.72;;;17.68;43.09
61035;BME280;46916;40.564;-7.958;2023-04-19T08:18:31;96713.78;;;17.53;42.94
61035;BME280;46916;40.564;-7.958;2023-04-19T08:20:32;96713.53;;;17.48;43.29
61035;BME280;46916;40.564;-7.958;2023-04-19T08:22:33;96716.38;;;17.47;43.81
61035;BME280;46916;40.564;-7.958;2023-04-19T08:24:34;96719.28;;;17.52;44.11
61035;BME280;46916;40.564;-7.958;2023-04-19T08:26:35;96716.44;;;17.53;43.82
61035;BME280;46916;40.564;-7.958;2023-04-19T08:28:35;96716.00;;;17.50;43.65
61035;BME280;46916;40.564;-7.958;2023-04-19T08:30:36;96711.13;;;17.53;43.96
61035;BME280;46916;40.564;-7.958;2023-04-19T08:32:38;96717.75;;;17.64;44.28
61035;BME280;46916;40.564;-7.958;2023-04-19T08:34:39;96716.81;;;17.72;44.49
61035;BME280;46916;40.564;-7.958;2023-04-19T08:36:40;96721.19;;;17.86;44.88
61035;BME280;46916;40.564;-7.958;2023-04-19T08:38:41;96724.75;;;18.00;45.48
61035;BME280;46916;40.564;-7.958;2023-04-19T08:40:46;96715.84;;;18.07;45.43
61035;BME280;46916;40.564;-7.958;2023-04-19T08:42:51;96726.53;;;18.21;45.04
61035;BME280;46916;40.564;-7.958;2023-04-19T08:44:53;96721.31;;;18.34;44.69
61035;BME280;46916;40.564;-7.958;2023-04-19T08:46:58;96724.19;;;18.39;44.52
61035;BME280;46916;40.564;-7.958;2023-04-19T08:48:59;96730.72;;;18.43;43.97
61035;BME280;46916;40.564;-7.958;2023-04-19T08:51:01;96720.34;;;18.48;43.24
61035;BME280;46916;40.564;-7.958;2023-04-19T08:53:02;96727.38;;;18.63;43.12
61035;BME280;46916;40.564;-7.958;2023-04-19T08:55:05;96730.91;;;18.76;43.04
61035;BME280;46916;40.564;-7.958;2023-04-19T08:57:07;96727.28;;;18.84;42.74
61035;BME280;46916;40.564;-7.958;2023-04-19T08:59:08;96740.56;;;18.91;42.87
61035;BME280;46916;40.564;-7.958;2023-04-19T09:01:09;96736.09;;;18.98;42.51
61035;BME280;46916;40.564;-7.958;2023-04-19T09:03:11;96732.44;;;18.99;42.17
61035;BME280;46916;40.564;-7.958;2023-04-19T09:05:13;96732.66;;;19.04;41.56
61035;BME280;46916;40.564;-7.958;2023-04-19T09:07:27;96738.56;;;19.06;42.14
61035;BME280;46916;40.564;-7.958;2023-04-19T09:09:29;96730.59;;;19.06;42.27
61035;BME280;46916;40.564;-7.958;2023-04-19T09:11:36;96736.75;;;19.07;42.21
61035;BME280;46916;40.564;-7.958;2023-04-19T09:13:39;96731.22;;;19.08;42.40
61035;BME280;46916;40.564;-7.958;2023-04-19T09:15:41;96737.38;;;19.15;42.23
61035;BME280;46916;40.564;-7.958;2023-04-19T09:18:02;96735.75;;;19.21;42.44
61035;BME280;46916;40.564;-7.958;2023-04-19T09:20:04;96739.03;;;19.23;42.42
61035;BME280;46916;40.564;-7.958;2023-04-19T09:22:12;96743.53;;;19.29;42.53
61035;BME280;46916;40.564;-7.958;2023-04-19T09:24:14;96747.63;;;19.32;42.90
61035;BME280;46916;40.564;-7.958;2023-04-19T09:26:15;96751.69;;;19.34;42.72
61035;BME280;46916;40.564;-7.958;2023-04-19T09:28:15;96749.47;;;19.38;42.77
61035;BME280;46916;40.564;-7.958;2023-04-19T09:30:21;96749.28;;;19.39;42.35
61035;BME280;46916;40.564;-7.958;2023-04-19T09:32:26;96746.41;;;19.41;42.13
61035;BME280;46916;40.564;-7.958;2023-04-19T09:34:28;96753.75;;;19.45;42.26
61035;BME280;46916;40.564;-7.958;2023-04-19T09:36:32;96750.72;;;19.48;42.25
61035;BME280;46916;40.564;-7.958;2023-04-19T09:38:46;96756.84;;;19.55;42.19
61035;BME280;46916;40.564;-7.958;2023-04-19T09:40:48;96757.84;;;19.54;42.57
61035;BME280;46916;40.564;-7.958;2023-04-19T09:42:49;96750.69;;;19.55;42.60
61035;BME280;46916;40.564;-7.958;2023-04-19T09:44:58;96762.19;;;19.62;42.90
61035;BME280;46916;40.564;-7.958;2023-04-19T09:46:58;96755.44;;;19.66;42.76
61035;BME280;46916;40.564;-7.958;2023-04-19T09:51:15;96770.16;;;19.75;40.91
61035;BME280;46916;40.564;-7.958;2023-04-19T09:53:20;96762.00;;;19.77;40.51
61035;BME280;46916;40.564;-7.958;2023-04-19T09:55:21;96765.50;;;19.84;39.90
61035;BME280;46916;40.564;-7.958;2023-04-19T09:57:23;96765.47;;;19.91;39.74
61035;BME280;46916;40.564;-7.958;2023-04-19T09:59:24;96776.13;;;19.97;39.88
61035;BME280;46916;40.564;-7.958;2023-04-19T10:01:25;96765.69;;;20.02;39.74
61035;BME280;46916;40.564;-7.958;2023-04-19T10:03:28;96773.66;;;20.09;39.94
61035;BME280;46916;40.564;-7.958;2023-04-19T10:05:30;96776.50;;;20.14;39.67
61035;BME280;46916;40.564;-7.958;2023-04-19T10:07:32;96779.19;;;20.21;39.48
61035;BME280;46916;40.564;-7.958;2023-04-19T10:09:34;96777.09;;;20.23;39.30
61035;BME280;46916;40.564;-7.958;2023-04-19T10:11:36;96775.06;;;20.25;39.01
61035;BME280;46916;40.564;-7.958;2023-04-19T10:13:41;96776.06;;;20.24;38.98
61035;BME280;46916;40.564;-7.958;2023-04-19T10:15:44;96778.75;;;20.24;39.26
61035;BME280;46916;40.564;-7.958;2023-04-19T10:17:45;96772.59;;;20.30;39.35
61035;BME280;46916;40.564;-7.958;2023-04-19T10:19:46;96779.16;;;20.34;39.58
61035;BME280;46916;40.564;-7.958;2023-04-19T10:21:48;96771.75;;;20.36;39.71
61035;BME280;46916;40.564;-7.958;2023-04-19T10:23:51;96780.56;;;20.43;39.03
61035;BME280;46916;40.564;-7.958;2023-04-19T10:25:56;96776.47;;;20.47;38.84
61035;BME280;46916;40.564;-7.958;2023-04-19T10:27:57;96772.38;;;20.51;37.71
61035;BME280;46916;40.564;-7.958;2023-04-19T10:30:00;96773.59;;;20.56;36.63
61035;BME280;46916;40.564;-7.958;2023-04-19T10:32:04;96772.16;;;20.60;34.30
61035;BME280;46916;40.564;-7.958;2023-04-19T10:34:05;96782.59;;;20.61;33.37
61035;BME280;46916;40.564;-7.958;2023-04-19T10:36:10;96777.88;;;20.63;33.06
61035;BME280;46916;40.564;-7.958;2023-04-19T10:38:14;96770.13;;;20.62;32.80
61035;BME280;46916;40.564;-7.958;2023-04-19T10:43:14;96771.34;;;20.66;33.29
61035;BME280;46916;40.564;-7.958;2023-04-19T10:45:32;96777.47;;;20.66;33.12